createdAt,value
2018-10-05T00:01:36.946Z,100.00
2018-10-05T00:04:39.926Z,100.00
2018-10-05T00:07:42.868Z,100.00
2018-10-05T00:10:45.961Z,100.00
2018-10-05T00:13:49.180Z,100.00
2018-10-05T00:16:52.129Z,100.00
2018-10-05T00:19:55.047Z,100.00
2018-10-05T00:22:58.010Z,100.00
2018-10-05T00:26:01.015Z,100.00
2018-10-05T00:29:04.152Z,100.00
2018-10-05T00:32:07.105Z,100.00
2018-10-05T00:35:10.077Z,100.00
2018-10-05T00:38:13.063Z,100.00
2018-10-05T00:41:16.056Z,100.00
2018-10-05T00:44:19.058Z,100.00
2018-10-05T00:47:21.977Z,100.00
2018-10-05T00:50:24.969Z,100.00
2018-10-05T00:53:27.939Z,100.00
2018-10-05T00:56:30.936Z,100.00
2018-10-05T00:59:33.942Z,100.00
2018-10-05T01:02:37.137Z,100.00
2018-10-05T01:05:40.157Z,100.00
2018-10-05T01:08:43.150Z,100.00
2018-10-05T01:11:46.171Z,100.00
2018-10-05T01:14:49.217Z,100.00
2018-10-05T01:17:52.213Z,100.00
2018-10-05T01:20:55.194Z,100.00
2018-10-05T01:23:58.205Z,100.00
2018-10-05T01:27:01.170Z,100.00
2018-10-05T01:30:04.286Z,100.00
2018-10-05T01:33:07.285Z,100.00
2018-10-05T01:36:10.310Z,100.00
2018-10-05T01:39:13.281Z,100.00
2018-10-05T01:42:16.276Z,100.00
2018-10-05T01:45:19.244Z,100.00
2018-10-05T01:48:22.195Z,100.00
2018-10-05T01:51:35.417Z,100.00
2018-10-05T01:54:38.405Z,100.00
2018-10-05T01:57:41.521Z,100.00
2018-10-05T02:00:44.446Z,100.00
2018-10-05T02:03:47.370Z,100.00
2018-10-05T02:06:50.352Z,100.00
2018-10-05T02:09:53.385Z,100.00
2018-10-05T02:12:56.457Z,100.00
2018-10-05T02:15:59.436Z,100.00
2018-10-05T02:19:02.444Z,100.00
2018-10-05T02:22:05.381Z,100.00
2018-10-05T02:25:08.421Z,100.00
2018-10-05T02:28:11.407Z,100.00
2018-10-05T02:31:14.378Z,100.00
2018-10-05T02:34:17.324Z,100.00
2018-10-05T02:37:20.278Z,100.00
2018-10-05T02:40:23.284Z,100.00
2018-10-05T02:43:26.260Z,100.00
2018-10-05T02:46:29.220Z,100.00
2018-10-05T02:49:32.145Z,100.00
2018-10-05T02:52:35.040Z,100.00
2018-10-05T02:55:38.009Z,100.00
2018-10-05T02:58:40.930Z,100.00
2018-10-05T03:02:01.196Z,100.00
2018-10-05T03:05:04.196Z,100.00
2018-10-05T03:08:07.121Z,100.00
2018-10-05T03:11:10.045Z,100.00
2018-10-05T03:14:12.941Z,100.00
2018-10-05T03:17:15.873Z,100.00
2018-10-05T03:20:18.826Z,100.00
2018-10-05T03:23:21.772Z,100.00
2018-10-05T03:26:24.772Z,100.00
2018-10-05T03:29:27.770Z,100.00
2018-10-05T03:32:30.715Z,100.00
2018-10-05T03:35:33.652Z,100.00
2018-10-05T03:38:36.546Z,100.00
2018-10-05T03:41:40.316Z,100.00
2018-10-05T03:44:43.248Z,100.00
2018-10-05T03:47:46.122Z,100.00
2018-10-05T03:50:49.048Z,100.00
2018-10-05T03:53:52.038Z,100.00
2018-10-05T03:56:55.078Z,100.00
2018-10-05T03:59:58.036Z,100.00
2018-10-05T04:03:01.178Z,100.00
2018-10-05T04:06:04.086Z,100.00
2018-10-05T04:09:08.717Z,100.00
2018-10-05T04:12:11.662Z,100.00
2018-10-05T04:15:14.610Z,100.00
2018-10-05T04:18:17.552Z,100.00
2018-10-05T04:21:20.433Z,100.00
2018-10-05T04:24:23.374Z,100.00
2018-10-05T04:27:26.307Z,100.00
2018-10-05T04:30:29.247Z,100.00
2018-10-05T04:33:32.241Z,100.00
2018-10-05T04:36:35.154Z,100.00
2018-10-05T04:39:38.097Z,100.00
2018-10-05T04:42:40.993Z,100.00
2018-10-05T04:45:43.957Z,100.00
2018-10-05T04:48:46.893Z,100.00
2018-10-05T04:51:49.813Z,100.00
2018-10-05T04:54:52.682Z,100.00
2018-10-05T04:57:55.630Z,100.00
2018-10-05T05:00:58.586Z,100.00
2018-10-05T05:04:01.543Z,100.00
2018-10-05T05:07:04.653Z,100.00
2018-10-05T05:10:07.621Z,100.00
2018-10-05T05:13:10.486Z,100.00
2018-10-05T05:16:13.431Z,100.00
2018-10-05T05:19:16.348Z,100.00
2018-10-05T05:22:19.274Z,100.00
2018-10-05T05:25:22.215Z,100.00
2018-10-05T05:28:25.177Z,100.00
2018-10-05T05:31:28.826Z,100.00
2018-10-05T05:34:31.790Z,100.00
2018-10-05T05:37:34.684Z,100.00
2018-10-05T05:40:37.601Z,100.00
2018-10-05T05:43:40.505Z,100.00
2018-10-05T05:46:43.978Z,100.00
2018-10-05T05:49:46.866Z,100.00
2018-10-05T05:52:49.824Z,100.00
2018-10-05T05:55:52.800Z,100.00
2018-10-05T05:58:55.788Z,100.00
2018-10-05T06:01:58.714Z,100.00
2018-10-05T06:05:01.646Z,100.00
2018-10-05T06:08:04.684Z,100.00
2018-10-05T06:11:07.713Z,100.00
2018-10-05T06:14:10.709Z,100.00
2018-10-05T06:17:13.634Z,100.00
2018-10-05T06:20:16.603Z,100.00
2018-10-05T06:23:19.674Z,100.00
2018-10-05T06:26:22.629Z,100.00
2018-10-05T06:29:25.545Z,100.00
2018-10-05T06:32:28.469Z,100.00
2018-10-05T06:35:31.395Z,100.00
2018-10-05T06:38:34.376Z,100.00
2018-10-05T06:41:37.533Z,100.00
2018-10-05T06:44:40.441Z,100.00
2018-10-05T06:47:43.394Z,100.00
2018-10-05T06:50:46.377Z,100.00
2018-10-05T06:53:49.363Z,100.00
2018-10-05T06:56:52.334Z,100.00
2018-10-05T06:59:55.250Z,100.00
2018-10-05T07:02:58.193Z,100.00
2018-10-05T07:06:01.134Z,100.00
2018-10-05T07:09:05.487Z,100.00
2018-10-05T07:12:08.511Z,100.00
2018-10-05T07:15:11.525Z,100.00
2018-10-05T07:18:14.461Z,100.00
2018-10-05T07:21:17.443Z,100.00
2018-10-05T07:24:20.345Z,100.00
2018-10-05T07:27:23.289Z,100.00
2018-10-05T07:30:26.206Z,100.00
2018-10-05T07:33:29.143Z,100.00
2018-10-05T07:36:32.092Z,100.00
2018-10-05T07:39:35.085Z,100.00
2018-10-05T07:42:38.021Z,100.00
2018-10-05T07:45:40.972Z,100.00
2018-10-05T07:48:43.897Z,100.00
2018-10-05T07:51:46.903Z,100.00
2018-10-05T07:54:49.824Z,100.00
2018-10-05T07:57:52.748Z,100.00
2018-10-05T08:00:55.590Z,100.00
2018-10-05T08:03:58.553Z,100.00
2018-10-05T08:07:01.537Z,100.00
2018-10-05T08:10:04.674Z,100.00
2018-10-05T08:13:07.597Z,100.00
2018-10-05T08:16:10.523Z,100.00
2018-10-05T08:19:13.489Z,100.00
2018-10-05T08:22:16.434Z,100.00
2018-10-05T08:25:19.357Z,100.00
2018-10-05T08:28:22.261Z,100.00
2018-10-05T08:31:25.268Z,100.00
2018-10-05T08:34:28.261Z,100.00
2018-10-05T08:37:31.098Z,100.00
2018-10-05T08:40:34.037Z,100.00
2018-10-05T08:43:36.965Z,100.00
2018-10-05T08:46:39.960Z,100.00
2018-10-05T08:49:42.927Z,100.00
2018-10-05T08:52:45.880Z,100.00
2018-10-05T08:55:49.044Z,100.00
2018-10-05T08:58:51.926Z,100.00
2018-10-05T09:01:54.819Z,100.00
2018-10-05T09:04:57.728Z,100.00
2018-10-05T09:08:00.647Z,100.00
2018-10-05T09:11:03.574Z,100.00
2018-10-05T09:14:06.770Z,100.00
2018-10-05T09:17:09.745Z,100.00
2018-10-05T09:20:12.602Z,100.00
2018-10-05T09:23:15.509Z,100.00
2018-10-05T09:26:18.428Z,100.00
2018-10-05T09:29:21.329Z,100.00
2018-10-05T09:32:24.303Z,100.00
2018-10-05T09:35:27.280Z,100.00
2018-10-05T09:38:30.177Z,100.00
2018-10-05T09:41:33.108Z,100.00
2018-10-05T09:44:36.025Z,100.00
2018-10-05T09:47:39.031Z,100.00
2018-10-05T09:50:42.142Z,100.00
2018-10-05T09:53:45.170Z,100.00
2018-10-05T09:56:48.080Z,100.00
2018-10-05T09:59:51.046Z,100.00
2018-10-05T10:03:03.472Z,100.00
2018-10-05T10:06:06.905Z,100.00
2018-10-05T10:09:09.874Z,100.00
2018-10-05T10:12:12.941Z,100.00
2018-10-05T10:15:15.954Z,100.00
2018-10-05T10:18:18.973Z,100.00
2018-10-05T10:21:21.908Z,100.00
2018-10-05T10:24:24.789Z,100.00
2018-10-05T10:27:27.781Z,100.00
2018-10-05T10:30:30.754Z,100.00
2018-10-05T10:33:33.677Z,100.00
2018-10-05T10:36:36.749Z,100.00
2018-10-05T10:39:39.697Z,100.00
2018-10-05T10:42:42.662Z,100.00
2018-10-05T10:45:45.580Z,100.00
2018-10-05T10:48:48.488Z,93.94
2018-10-05T10:51:51.421Z,100.00
2018-10-05T10:54:54.488Z,100.00
2018-10-05T10:57:57.800Z,100.00
2018-10-05T11:01:00.747Z,100.00
2018-10-05T11:04:04.668Z,100.00
2018-10-05T11:07:07.768Z,92.72
2018-10-05T11:10:11.513Z,100.00
2018-10-05T11:13:15.809Z,94.89
2018-10-05T11:16:19.086Z,86.78
2018-10-05T11:19:23.525Z,94.97
2018-10-05T11:22:26.622Z,80.27
2018-10-05T11:25:30.045Z,84.56
2018-10-05T11:28:34.554Z,93.21
2018-10-05T11:32:41.136Z,97.12
2018-10-05T11:35:44.623Z,83.74
2018-10-05T11:38:48.402Z,83.20
2018-10-05T11:41:52.740Z,88.23
2018-10-05T11:44:56.029Z,100.00
2018-10-05T11:47:59.703Z,85.94
2018-10-05T11:51:03.249Z,90.64
2018-10-05T11:54:06.608Z,85.08
2018-10-05T11:57:09.597Z,94.46
2018-10-05T12:00:15.957Z,81.95
2018-10-05T12:03:18.903Z,100.00
2018-10-05T12:06:21.851Z,82.58
2018-10-05T12:09:24.838Z,99.47
2018-10-05T12:12:27.713Z,78.59
2018-10-05T12:15:30.648Z,90.58
2018-10-05T12:18:33.629Z,87.56
2018-10-05T12:21:36.574Z,76.01
2018-10-05T12:24:39.485Z,85.94
2018-10-05T12:27:42.410Z,91.21
2018-10-05T12:30:45.413Z,90.25
2018-10-05T12:33:48.455Z,90.21
2018-10-05T12:36:51.429Z,78.04
2018-10-05T12:39:54.369Z,85.16
2018-10-05T12:42:57.349Z,78.90
2018-10-05T12:46:00.418Z,75.56
2018-10-05T12:49:10.106Z,68.69
2018-10-05T12:52:13.060Z,64.75
2018-10-05T12:55:15.994Z,66.74
2018-10-05T12:58:19.374Z,74.37
2018-10-05T13:01:22.218Z,76.60
2018-10-05T13:04:25.206Z,80.79
2018-10-05T13:07:28.199Z,85.21
2018-10-05T13:10:31.117Z,66.57
2018-10-05T13:13:34.098Z,69.63
2018-10-05T13:16:37.057Z,64.75
2018-10-05T13:19:39.987Z,64.01
2018-10-05T13:22:42.965Z,75.66
2018-10-05T13:25:45.929Z,69.66
2018-10-05T13:28:48.847Z,65.53
2018-10-05T13:31:51.770Z,73.32
2018-10-05T13:34:54.754Z,60.18
2018-10-05T13:37:57.680Z,60.21
2018-10-05T13:41:00.662Z,72.62
2018-10-05T13:44:03.617Z,61.53
2018-10-05T13:47:06.573Z,59.38
2018-10-05T13:50:11.598Z,60.70
2018-10-05T13:53:14.545Z,58.98
2018-10-05T13:56:17.482Z,71.39
2018-10-05T13:59:20.540Z,65.01
2018-10-05T14:02:23.503Z,59.74
2018-10-05T14:05:26.405Z,65.39
2018-10-05T14:08:29.302Z,61.55
2018-10-05T14:11:32.232Z,65.49
2018-10-05T14:14:35.103Z,64.23
2018-10-05T14:17:38.085Z,62.37
2018-10-05T14:20:40.999Z,66.96
2018-10-05T14:23:43.869Z,64.21
2018-10-05T14:26:46.799Z,66.60
2018-10-05T14:29:49.733Z,67.33
2018-10-05T14:32:52.634Z,57.67
2018-10-05T14:35:55.541Z,62.88
2018-10-05T14:38:58.549Z,59.83
2018-10-05T14:42:01.510Z,69.86
2018-10-05T14:45:04.601Z,60.72
2018-10-05T14:48:07.621Z,56.16
2018-10-05T14:51:10.552Z,57.22
2018-10-05T14:54:13.461Z,60.56
2018-10-05T14:57:16.429Z,67.85
2018-10-05T15:00:19.353Z,74.56
2018-10-05T15:03:22.372Z,80.82
2018-10-05T15:06:25.349Z,84.69
2018-10-05T15:09:28.354Z,89.51
2018-10-05T15:12:31.246Z,93.50
2018-10-05T15:15:34.223Z,95.95
2018-10-05T15:18:37.166Z,98.70
2018-10-05T15:21:40.098Z,100.00
2018-10-05T15:24:43.065Z,99.04
2018-10-05T15:27:46.018Z,100.00
2018-10-05T15:30:48.943Z,100.00
2018-10-05T15:33:51.810Z,100.00
2018-10-05T15:36:54.793Z,100.00
2018-10-05T15:39:57.725Z,100.00
2018-10-05T15:43:00.802Z,100.00
2018-10-05T15:46:07.129Z,100.00
2018-10-05T15:49:10.042Z,100.00
2018-10-05T15:52:13.144Z,100.00
2018-10-05T15:55:16.021Z,100.00
2018-10-05T15:58:18.937Z,100.00
2018-10-05T16:01:21.844Z,100.00
2018-10-05T16:04:25.102Z,100.00
2018-10-05T16:07:28.022Z,100.00
2018-10-05T16:10:30.943Z,100.00
2018-10-05T16:13:33.858Z,100.00
2018-10-05T16:16:36.806Z,100.00
2018-10-05T16:19:39.842Z,100.00
2018-10-05T16:22:42.840Z,100.00
2018-10-05T16:25:45.821Z,100.00
2018-10-05T16:28:48.817Z,100.00
2018-10-05T16:31:51.787Z,100.00
2018-10-05T16:34:54.781Z,100.00
2018-10-05T16:37:57.927Z,100.00
2018-10-05T16:41:00.915Z,100.00
2018-10-05T16:44:04.060Z,100.00
2018-10-05T16:47:07.100Z,100.00
2018-10-05T16:50:10.059Z,100.00
2018-10-05T16:53:13.155Z,100.00
2018-10-05T16:56:16.818Z,100.00
2018-10-05T16:59:19.746Z,100.00
2018-10-05T17:02:23.492Z,100.00
2018-10-05T17:05:26.415Z,100.00
2018-10-05T17:08:31.306Z,100.00
2018-10-05T17:11:36.034Z,100.00
2018-10-05T17:14:39.411Z,100.00
2018-10-05T17:17:43.330Z,100.00
2018-10-05T17:20:47.494Z,100.00
2018-10-05T17:23:50.778Z,100.00
2018-10-05T17:26:53.759Z,100.00
2018-10-05T17:29:56.935Z,100.00
2018-10-05T17:33:00.992Z,100.00
2018-10-05T17:36:04.119Z,100.00
2018-10-05T17:39:09.749Z,100.00
2018-10-05T17:42:13.353Z,100.00
2018-10-05T17:45:16.773Z,100.00
2018-10-05T17:48:20.033Z,100.00
2018-10-05T17:51:23.139Z,100.00
2018-10-05T17:54:26.325Z,100.00
2018-10-05T17:57:29.593Z,100.00
2018-10-05T18:00:32.699Z,100.00
2018-10-05T18:03:36.406Z,100.00
2018-10-05T18:06:39.956Z,100.00
2018-10-05T18:09:43.440Z,100.00
2018-10-05T18:12:47.033Z,100.00
2018-10-05T18:15:50.698Z,100.00
2018-10-05T18:18:53.641Z,100.00
2018-10-05T18:21:56.634Z,100.00
2018-10-05T18:25:00.229Z,100.00
2018-10-05T18:28:03.612Z,100.00
2018-10-05T18:31:06.725Z,100.00
2018-10-05T18:34:09.821Z,100.00
2018-10-05T18:37:12.650Z,100.00
2018-10-05T18:40:15.790Z,100.00
2018-10-05T18:43:18.885Z,100.00
2018-10-05T18:46:21.868Z,100.00
2018-10-05T18:49:24.846Z,100.00
2018-10-05T18:52:27.939Z,100.00
2018-10-05T18:55:31.127Z,100.00
2018-10-05T18:58:34.291Z,100.00
2018-10-05T19:01:37.281Z,100.00
2018-10-05T19:04:40.385Z,100.00
2018-10-05T19:07:43.542Z,100.00
2018-10-05T19:10:46.725Z,100.00
2018-10-05T19:13:50.299Z,100.00
2018-10-05T19:16:53.269Z,100.00
2018-10-05T19:19:56.228Z,100.00
2018-10-05T19:22:59.300Z,100.00
2018-10-05T19:26:03.532Z,100.00
2018-10-05T19:29:06.664Z,100.00
2018-10-05T19:32:09.610Z,100.00
2018-10-05T19:35:12.548Z,100.00
2018-10-05T19:38:15.645Z,100.00
2018-10-05T19:41:18.677Z,100.00
2018-10-05T19:44:21.586Z,100.00
2018-10-05T19:47:24.761Z,100.00
2018-10-05T19:50:27.941Z,100.00
2018-10-05T19:53:30.915Z,100.00
2018-10-05T19:56:33.925Z,100.00
2018-10-05T19:59:36.893Z,100.00
2018-10-05T20:02:39.851Z,100.00
2018-10-05T20:05:42.721Z,100.00
2018-10-05T20:08:46.075Z,100.00
2018-10-05T20:11:49.756Z,100.00
2018-10-05T20:18:15.221Z,100.00
2018-10-05T20:21:18.520Z,100.00
2018-10-05T20:24:21.694Z,100.00
2018-10-05T20:27:25.407Z,100.00
2018-10-05T20:30:28.701Z,100.00
2018-10-05T20:33:32.159Z,100.00
2018-10-05T20:36:35.634Z,100.00
2018-10-05T20:39:38.910Z,100.00
2018-10-05T20:42:42.271Z,100.00
2018-10-05T20:45:45.518Z,100.00
2018-10-05T20:48:48.693Z,100.00
2018-10-05T20:51:51.811Z,100.00
2018-10-05T20:54:55.059Z,100.00
2018-10-05T20:57:58.681Z,100.00
2018-10-05T21:01:02.307Z,100.00
2018-10-05T21:04:05.509Z,100.00
2018-10-05T21:07:08.625Z,100.00
2018-10-05T21:10:11.898Z,100.00
2018-10-05T21:13:14.844Z,100.00
2018-10-05T21:16:17.794Z,100.00
2018-10-05T21:19:20.693Z,100.00
2018-10-05T21:22:23.694Z,100.00
2018-10-05T21:25:26.657Z,100.00
2018-10-05T21:28:29.571Z,100.00
2018-10-05T21:31:32.613Z,100.00
2018-10-05T21:34:35.535Z,100.00
2018-10-05T21:37:38.546Z,100.00
2018-10-05T21:40:41.683Z,100.00
2018-10-05T21:43:44.647Z,100.00
2018-10-05T21:46:47.605Z,100.00
2018-10-05T21:49:50.627Z,100.00
2018-10-05T21:52:53.522Z,100.00
2018-10-05T21:55:56.453Z,100.00
2018-10-05T21:58:59.430Z,100.00
2018-10-05T22:02:02.392Z,100.00
2018-10-05T22:05:06.402Z,100.00
2018-10-05T22:08:09.348Z,100.00
2018-10-05T22:11:12.682Z,100.00
2018-10-05T22:14:15.602Z,100.00
2018-10-05T22:17:18.602Z,100.00
2018-10-05T22:20:21.782Z,100.00
2018-10-05T22:23:24.714Z,100.00
2018-10-05T22:26:27.746Z,100.00
2018-10-05T22:29:30.711Z,100.00
2018-10-05T22:32:33.634Z,100.00
2018-10-05T22:35:36.601Z,100.00
2018-10-05T22:38:39.524Z,100.00
2018-10-05T22:41:42.517Z,100.00
2018-10-05T22:44:45.498Z,100.00
2018-10-05T22:47:48.437Z,100.00
2018-10-05T22:50:51.307Z,100.00
2018-10-05T22:53:54.206Z,100.00
2018-10-05T22:56:57.102Z,100.00
2018-10-05T23:00:00.090Z,100.00
2018-10-05T23:03:03.088Z,100.00
2018-10-05T23:06:06.152Z,100.00
2018-10-05T23:09:09.473Z,100.00
2018-10-05T23:12:12.404Z,100.00
2018-10-05T23:15:15.369Z,100.00
2018-10-05T23:18:18.286Z,100.00
2018-10-05T23:21:21.273Z,100.00
2018-10-05T23:24:24.207Z,100.00
2018-10-05T23:27:27.311Z,100.00
2018-10-05T23:30:30.257Z,100.00
2018-10-05T23:33:33.192Z,100.00
2018-10-05T23:36:36.102Z,100.00
2018-10-05T23:39:39.104Z,100.00
2018-10-05T23:42:42.041Z,100.00
2018-10-05T23:45:44.969Z,100.00
2018-10-05T23:48:47.888Z,100.00
2018-10-05T23:51:50.837Z,100.00
2018-10-05T23:54:53.733Z,100.00
2018-10-05T23:57:56.685Z,100.00
